Time;durP1;ratioP1;P1;durP2;ratioP2;P2;SDS_P1;SDS_P2;PMS_P1;PMS_P2;Temp;Humidity;BMP_temperature;BMP_pressure;BME280_temperature;BME280_humidity;BME280_pressure;Samples;Min_cycle;Max_cycle;Signal;HPM_P1;HPM_P2
2022/07/06 00:02:18;;;;;;;0.60;0.57;;;;;;;22.91;100.00;95324.22;5136312;27;20866;-62
2022/07/06 00:04:47;;;;;;;0.70;0.70;;;;;;;22.77;100.00;95324.63;5136004;27;21002;-63
2022/07/06 00:07:15;;;;;;;1.17;1.17;;;;;;;22.10;100.00;95305.75;5135845;27;20982;-63
2022/07/06 00:09:44;;;;;;;0.73;0.73;;;;;;;22.12;100.00;95325.09;5136199;27;20426;-62
2022/07/06 00:12:12;;;;;;;0.50;0.40;;;;;;;21.78;100.00;95320.19;5135804;27;20469;-62
2022/07/06 00:14:41;;;;;;;1.10;0.67;;;;;;;21.93;100.00;95320.31;5135626;27;20504;-62
2022/07/06 00:17:11;;;;;;;1.10;1.00;;;;;;;22.05;100.00;95308.69;5136095;27;20854;-62
2022/07/06 00:19:39;;;;;;;0.83;0.80;;;;;;;21.18;100.00;95272.47;5135046;27;20440;-62
2022/07/06 00:22:07;;;;;;;1.63;1.53;;;;;;;21.19;100.00;95317.97;5135684;27;20459;-63
2022/07/06 00:24:36;;;;;;;2.63;1.23;;;;;;;21.24;100.00;95300.78;5135935;27;20431;-63
2022/07/06 00:27:05;;;;;;;0.70;0.70;;;;;;;21.36;100.00;95308.84;5135851;27;20490;-63
2022/07/06 00:29:33;;;;;;;0.50;0.30;;;;;;;21.40;100.00;95293.59;5135841;27;20841;-63
2022/07/06 00:32:02;;;;;;;1.23;0.40;;;;;;;21.68;100.00;95291.75;5135505;27;20501;-63
2022/07/06 00:34:32;;;;;;;0.70;0.70;;;;;;;21.73;100.00;95280.72;5135449;27;20462;-62
2022/07/06 00:37:00;;;;;;;0.50;0.37;;;;;;;22.08;100.00;95281.03;5135709;27;20423;-63
2022/07/06 00:39:29;;;;;;;0.50;0.40;;;;;;;22.33;100.00;95263.59;5135299;27;20470;-63
2022/07/06 00:41:57;;;;;;;0.40;0.30;;;;;;;22.38;100.00;95244.44;5135327;27;20423;-63
2022/07/06 00:44:26;;;;;;;0.60;0.57;;;;;;;22.35;100.00;95242.44;5134874;27;20455;-63
2022/07/06 00:46:54;;;;;;;0.80;0.50;;;;;;;22.54;100.00;95233.69;5134422;27;21022;-63
2022/07/06 00:52:10;;;;;;;1.20;0.40;;;;;;;22.40;100.00;95244.88;5135200;27;20433;-63
2022/07/06 00:54:42;;;;;;;0.50;0.30;;;;;;;22.31;100.00;95244.25;5135096;27;20454;-63
2022/07/06 00:57:10;;;;;;;1.07;0.77;;;;;;;22.28;100.00;95236.06;5134214;27;20421;-63
2022/07/06 00:59:39;;;;;;;0.83;0.40;;;;;;;22.13;100.00;95232.19;5135289;27;20559;-63
2022/07/06 01:02:07;;;;;;;0.40;0.30;;;;;;;22.33;100.00;95225.78;5134915;27;20928;-63
2022/07/06 01:04:36;;;;;;;1.50;0.50;;;;;;;22.16;100.00;95209.91;5134956;27;20430;-63
2022/07/06 01:07:05;;;;;;;0.80;0.80;;;;;;;21.95;100.00;95206.63;5135164;27;20526;-63
2022/07/06 01:09:34;;;;;;;2.40;0.40;;;;;;;21.78;100.00;95204.19;5134745;27;20474;-63
2022/07/06 01:12:04;;;;;;;0.70;0.53;;;;;;;21.78;100.00;95202.25;5134883;27;20415;-63
2022/07/06 01:14:33;;;;;;;0.93;0.50;;;;;;;21.91;100.00;95187.63;5134624;27;20506;-64
2022/07/06 01:17:02;;;;;;;0.50;0.50;;;;;;;21.45;100.00;95183.56;5134585;27;20940;-64
2022/07/06 01:19:30;;;;;;;0.90;0.90;;;;;;;21.43;100.00;95182.34;5134670;27;20526;-63
2022/07/06 01:22:00;;;;;;;0.70;0.70;;;;;;;21.42;100.00;95170.00;5134869;27;20514;-63
2022/07/06 01:24:29;;;;;;;1.00;0.87;;;;;;;21.62;100.00;95162.84;5134796;27;20488;-64
2022/07/06 01:26:58;;;;;;;0.50;0.40;;;;;;;22.03;100.00;95162.50;5134667;27;20513;-63
2022/07/06 01:29:26;;;;;;;0.50;0.30;;;;;;;22.36;100.00;95157.59;5134390;27;20427;-64
2022/07/06 01:31:55;;;;;;;0.50;0.33;;;;;;;22.49;100.00;95147.50;5134672;27;20526;-64
2022/07/06 01:34:24;;;;;;;0.70;0.63;;;;;;;21.84;100.00;95146.91;5134663;27;20461;-64
2022/07/06 01:36:52;;;;;;;0.50;0.40;;;;;;;22.03;100.00;95154.41;5134302;27;20430;-64
2022/07/06 01:39:22;;;;;;;0.70;0.70;;;;;;;21.80;100.00;95156.06;5134186;27;20525;-63
2022/07/06 01:41:50;;;;;;;0.63;0.50;;;;;;;21.55;100.00;95151.88;5134550;27;20506;-64
2022/07/06 01:44:19;;;;;;;0.40;0.30;;;;;;;21.24;100.00;95149.81;5134145;27;20526;-63
2022/07/06 01:46:47;;;;;;;0.90;0.40;;;;;;;21.58;100.00;95149.25;5134317;27;20545;-64
2022/07/06 01:49:16;;;;;;;0.60;0.60;;;;;;;21.78;100.00;95153.69;5134358;27;20430;-64
2022/07/06 01:51:45;;;;;;;0.40;0.20;;;;;;;21.80;100.00;95153.34;5134115;27;20453;-64
2022/07/06 01:54:13;;;;;;;1.87;0.70;;;;;;;22.09;100.00;95153.00;5133958;27;20749;-64
2022/07/06 01:56:43;;;;;;;0.60;0.40;;;;;;;22.26;100.00;95146.53;5132871;27;20895;-64
2022/07/06 01:59:11;;;;;;;0.67;0.33;;;;;;;22.12;100.00;95144.22;5134030;27;20880;-64
2022/07/06 02:01:40;;;;;;;0.70;0.60;;;;;;;22.10;100.00;95149.19;5134019;27;20454;-64
2022/07/06 02:04:08;;;;;;;0.50;0.40;;;;;;;21.79;100.00;95154.47;5133936;27;20438;-64
2022/07/06 02:06:37;;;;;;;1.17;1.17;;;;;;;21.75;100.00;95157.09;5133530;27;20483;-64
2022/07/06 02:09:06;;;;;;;1.67;0.60;;;;;;;22.01;100.00;95160.13;5133741;27;20466;-65
2022/07/06 02:11:34;;;;;;;0.67;0.67;;;;;;;21.99;100.00;95173.19;5133643;27;20461;-64
2022/07/06 02:14:04;;;;;;;0.50;0.40;;;;;;;21.41;100.00;95174.59;5133583;27;20462;-64
2022/07/06 02:16:32;;;;;;;0.50;0.40;;;;;;;21.64;100.00;95174.88;5133766;27;20509;-64
2022/07/06 02:19:01;;;;;;;0.70;0.70;;;;;;;21.34;100.00;95177.09;5133451;27;20430;-64
2022/07/06 02:21:30;;;;;;;0.80;0.73;;;;;;;21.26;100.00;95194.19;5133361;27;20426;-64
2022/07/06 02:23:58;;;;;;;0.90;0.90;;;;;;;20.85;100.00;95187.09;5133376;27;20491;-64
2022/07/06 02:26:27;;;;;;;0.93;0.90;;;;;;;21.14;100.00;95193.41;5133266;27;20419;-64
2022/07/06 02:28:55;;;;;;;1.17;0.50;;;;;;;21.03;100.00;95187.66;5133517;27;20497;-64
2022/07/06 02:31:25;;;;;;;0.83;0.77;;;;;;;20.97;100.00;95194.41;5133496;27;20418;-64
2022/07/06 02:33:54;;;;;;;0.50;0.30;;;;;;;21.26;100.00;95196.88;5133583;27;20444;-64
2022/07/06 02:36:22;;;;;;;1.10;1.03;;;;;;;21.58;100.00;95187.03;5133409;27;20490;-65
2022/07/06 02:38:50;;;;;;;0.40;0.30;;;;;;;21.79;100.00;95194.94;5133091;27;20466;-65
2022/07/06 02:41:19;;;;;;;1.17;1.17;;;;;;;21.98;100.00;95187.03;5132575;27;20502;-64
2022/07/06 02:43:47;;;;;;;0.50;0.40;;;;;;;22.11;100.00;95175.06;5133308;27;20843;-65
2022/07/06 02:46:16;;;;;;;0.70;0.50;;;;;;;22.19;100.00;95184.91;5133015;27;20509;-64
2022/07/06 02:48:45;;;;;;;0.50;0.50;;;;;;;22.00;100.00;95180.16;5132959;27;21082;-64
2022/07/06 02:51:14;;;;;;;0.50;0.50;;;;;;;21.87;100.00;95165.16;5133112;27;20485;-64
2022/07/06 02:53:42;;;;;;;0.50;0.40;;;;;;;22.01;100.00;95187.13;5133228;27;20510;-64
2022/07/06 02:56:11;;;;;;;0.50;0.40;;;;;;;21.83;100.00;95176.97;5132809;27;20460;-64
2022/07/06 02:58:39;;;;;;;0.60;0.40;;;;;;;21.17;100.00;95161.19;5132748;27;20525;-65
2022/07/06 03:01:07;;;;;;;1.40;1.30;;;;;;;21.46;100.00;95168.19;5132817;27;20462;-64
2022/07/06 03:03:36;;;;;;;0.40;0.30;;;;;;;21.55;100.00;95170.75;5132746;28;20434;-64
2022/07/06 03:06:07;;;;;;;0.50;0.30;;;;;;;21.49;100.00;95165.59;5132692;27;20427;-64
2022/07/06 03:08:36;;;;;;;0.60;0.60;;;;;;;21.58;100.00;95135.00;5139998;27;20564;-66
2022/07/06 03:11:07;;;;;;;0.60;0.40;;;;;;;21.43;100.00;95099.53;5138867;27;20794;-64
2022/07/06 03:13:39;;;;;;;0.40;0.30;;;;;;;21.93;100.00;95173.78;5135825;28;20480;-64
2022/07/06 03:16:08;;;;;;;0.50;0.40;;;;;;;21.96;100.00;95170.41;5137491;28;20423;-64
2022/07/06 03:18:36;;;;;;;0.40;0.30;;;;;;;21.96;100.00;95175.81;5133067;28;20435;-63
2022/07/06 03:21:06;;;;;;;0.50;0.40;;;;;;;21.98;100.00;95173.53;5134695;28;20427;-64
2022/07/06 03:23:35;;;;;;;0.47;0.33;;;;;;;21.95;100.00;95172.31;5136505;28;20426;-65
2022/07/06 03:26:03;;;;;;;0.60;0.30;;;;;;;21.90;100.00;95172.56;5134424;28;20414;-64
2022/07/06 03:28:33;;;;;;;0.50;0.33;;;;;;;21.95;100.00;95166.94;5146943;28;20465;-65
2022/07/06 03:31:01;;;;;;;0.40;0.30;;;;;;;21.96;100.00;95181.97;5132777;28;20457;-64
2022/07/06 03:33:30;;;;;;;0.60;0.50;;;;;;;21.82;100.00;95164.59;5133869;28;20506;-65
2022/07/06 03:35:59;;;;;;;1.13;1.13;;;;;;;21.96;100.00;95181.97;5136090;28;20436;-65
2022/07/06 03:38:35;;;;;;;0.70;0.30;;;;;;;21.93;100.00;95180.00;5141879;28;20426;-65
2022/07/06 03:41:04;;;;;;;0.80;0.80;;;;;;;21.79;100.00;95187.63;5138218;28;20487;-76
2022/07/06 03:43:32;;;;;;;0.57;0.57;;;;;;;22.11;100.00;95188.56;5133263;28;20431;-74
2022/07/06 03:46:01;;;;;;;0.40;0.30;;;;;;;22.31;100.00;95187.56;5135454;28;20501;-74
2022/07/06 03:48:31;;;;;;;2.10;2.10;;;;;;;22.10;100.00;95190.47;5138842;28;20497;-75
2022/07/06 03:51:01;;;;;;;0.50;0.40;;;;;;;22.02;100.00;95201.41;5142787;28;20407;-75
2022/07/06 03:53:32;;;;;;;0.50;0.40;;;;;;;21.71;100.00;95148.09;5138907;28;20426;-74
2022/07/06 03:58:46;;;;;;;2.20;0.50;;;;;;;21.71;100.00;95190.47;5132196;28;20422;-60
2022/07/06 04:01:15;;;;;;;4.00;0.50;;;;;;;21.97;100.00;95191.66;5132447;28;20475;-61
2022/07/06 04:03:44;;;;;;;0.50;0.40;;;;;;;21.83;100.00;95188.50;5132419;28;20423;-58
2022/07/06 04:06:13;;;;;;;0.50;0.40;;;;;;;21.72;100.00;95143.50;5132356;28;20849;-59
2022/07/06 04:08:43;;;;;;;0.40;0.30;;;;;;;22.27;100.00;95194.75;5131930;28;20562;-59
2022/07/06 04:11:12;;;;;;;0.70;0.70;;;;;;;22.34;100.00;95186.06;5132530;28;20450;-59
2022/07/06 04:13:40;;;;;;;4.33;0.50;;;;;;;22.42;100.00;95196.69;5131562;28;21006;-59
2022/07/06 04:16:09;;;;;;;0.40;0.30;;;;;;;22.18;100.00;95134.75;5132177;28;20518;-59
2022/07/06 04:18:37;;;;;;;0.40;0.30;;;;;;;22.77;100.00;95194.91;5132960;27;20442;-60
2022/07/06 04:21:06;;;;;;;0.40;0.30;;;;;;;22.87;100.00;95198.25;5136209;27;20517;-58
2022/07/06 04:23:35;;;;;;;0.40;0.30;;;;;;;22.77;100.00;95199.53;5135991;27;20434;-59
2022/07/06 04:26:04;;;;;;;0.57;0.30;;;;;;;22.52;100.00;95195.41;5135769;27;20479;-58
2022/07/06 04:28:33;;;;;;;0.60;0.40;;;;;;;22.62;100.00;95206.50;5135606;27;20516;-58
2022/07/06 04:31:01;;;;;;;0.40;0.37;;;;;;;22.75;100.00;95205.28;5135669;27;20455;-59
2022/07/06 04:33:30;;;;;;;0.60;0.60;;;;;;;22.93;100.00;95202.22;5135488;27;20993;-59
2022/07/06 04:35:58;;;;;;;0.60;0.60;;;;;;;22.04;100.00;95209.94;5135859;27;20493;-59
2022/07/06 04:38:27;;;;;;;0.40;0.30;;;;;;;22.28;100.00;95206.34;5135703;27;20518;-58
2022/07/06 04:40:55;;;;;;;0.50;0.47;;;;;;;22.33;100.00;95201.50;5135408;27;20556;-58
2022/07/06 04:43:25;;;;;;;0.40;0.30;;;;;;;22.82;100.00;95207.38;5135683;27;20458;-57
2022/07/06 04:45:53;;;;;;;0.50;0.30;;;;;;;22.94;100.00;95214.63;5134785;27;20977;-58
2022/07/06 04:48:21;;;;;;;0.50;0.50;;;;;;;23.09;100.00;95211.91;5135143;27;20495;-57
2022/07/06 04:50:51;;;;;;;0.60;0.40;;;;;;;22.57;100.00;95211.34;5135156;27;20415;-58
2022/07/06 04:53:19;;;;;;;1.10;0.40;;;;;;;22.57;100.00;95212.13;5135173;27;20430;-57
2022/07/06 04:55:48;;;;;;;0.60;0.60;;;;;;;22.93;100.00;95218.44;5135029;27;20426;-58
2022/07/06 04:58:16;;;;;;;0.50;0.37;;;;;;;22.92;100.00;95195.28;5135010;27;20493;-57
2022/07/06 05:00:46;;;;;;;0.50;0.50;;;;;;;22.97;100.00;95205.81;5134918;27;20430;-58
2022/07/06 05:03:15;;;;;;;0.50;0.40;;;;;;;23.30;100.00;95211.63;5134955;27;20427;-56
2022/07/06 05:05:44;;;;;;;1.43;1.23;;;;;;;22.98;100.00;95204.66;5135213;27;20511;-56
2022/07/06 05:08:12;;;;;;;0.97;0.60;;;;;;;22.85;100.00;95219.41;5135056;27;20458;-57
2022/07/06 05:10:41;;;;;;;0.70;0.60;;;;;;;23.10;100.00;95218.88;5134969;27;20462;-57
2022/07/06 05:13:09;;;;;;;1.77;1.60;;;;;;;23.13;100.00;95220.09;5134717;27;20521;-56
2022/07/06 05:15:37;;;;;;;0.50;0.33;;;;;;;23.39;100.00;95223.06;5133919;27;20587;-57
2022/07/06 05:18:07;;;;;;;0.53;0.50;;;;;;;23.29;100.00;95191.13;5134634;27;20874;-55
2022/07/06 05:20:36;;;;;;;4.03;1.60;;;;;;;22.88;100.00;95232.22;5134540;27;20430;-56
2022/07/06 05:23:04;;;;;;;0.80;0.63;;;;;;;23.32;100.00;95228.28;5134849;27;20506;-55
2022/07/06 05:25:33;;;;;;;0.53;0.43;;;;;;;23.29;100.00;95228.97;5134442;27;20458;-56
2022/07/06 05:28:01;;;;;;;0.60;0.43;;;;;;;23.66;100.00;95230.22;5134723;27;20530;-56
2022/07/06 05:30:30;;;;;;;0.50;0.33;;;;;;;23.89;100.00;95219.50;5134469;27;20545;-57
2022/07/06 05:32:59;;;;;;;0.60;0.50;;;;;;;24.15;100.00;95232.41;5134368;27;20455;-55
2022/07/06 05:35:30;;;;;;;1.10;1.03;;;;;;;24.43;100.00;95231.06;5133825;27;20438;-56
2022/07/06 05:38:18;;;;;;;0.50;0.50;;;;;;;24.09;100.00;95231.13;5134252;27;20434;-57
2022/07/06 05:40:50;;;;;;;0.80;0.60;;;;;;;24.00;100.00;95206.97;5134573;27;20518;-56
2022/07/06 05:43:19;;;;;;;4.20;1.07;;;;;;;23.78;100.00;95150.84;5134111;27;20480;-57
2022/07/06 05:45:49;;;;;;;0.63;0.50;;;;;;;24.51;100.00;95227.34;5134213;27;20411;-55
2022/07/06 05:51:05;;;;;;;1.50;1.40;;;;;;;24.85;100.00;95222.13;5134030;27;20422;-56
2022/07/06 05:53:34;;;;;;;0.50;0.50;;;;;;;24.88;100.00;95216.75;5133795;27;20427;-57
2022/07/06 05:56:03;;;;;;;0.50;0.40;;;;;;;24.90;100.00;95214.47;5132932;27;20469;-56
2022/07/06 05:58:31;;;;;;;0.50;0.50;;;;;;;25.08;100.00;95223.69;5134083;27;20506;-56
2022/07/06 06:00:59;;;;;;;0.70;0.70;;;;;;;25.17;100.00;95216.06;5133675;27;20471;-56
2022/07/06 06:03:28;;;;;;;1.30;0.90;;;;;;;24.98;100.00;95218.88;5133046;27;20430;-56
2022/07/06 06:05:56;;;;;;;0.83;0.83;;;;;;;24.83;100.00;95208.16;5133721;27;20435;-56
2022/07/06 06:08:26;;;;;;;0.40;0.30;;;;;;;25.39;100.00;95221.81;5133521;27;20868;-56
2022/07/06 06:10:55;;;;;;;0.40;0.30;;;;;;;25.44;100.00;95207.94;5133785;27;20515;-56
2022/07/06 06:13:24;;;;;;;0.93;0.60;;;;;;;25.79;100.00;95213.88;5133512;27;20469;-56
2022/07/06 06:15:52;;;;;;;0.50;0.30;;;;;;;25.99;100.00;95217.22;5133816;27;20692;-56
2022/07/06 06:18:21;;;;;;;0.70;0.70;;;;;;;26.13;100.00;95206.59;5133483;27;20422;-56
2022/07/06 06:20:50;;;;;;;0.87;0.50;;;;;;;25.74;100.00;95211.50;5133390;27;20431;-56
2022/07/06 06:23:18;;;;;;;1.17;1.07;;;;;;;26.10;100.00;95210.78;5133401;27;21142;-56
2022/07/06 06:25:48;;;;;;;0.67;0.67;;;;;;;26.21;100.00;95208.25;5133309;27;20877;-56
2022/07/06 06:28:16;;;;;;;0.77;0.70;;;;;;;26.20;100.00;95203.94;5133205;27;20510;-55
2022/07/06 06:30:45;;;;;;;0.70;0.60;;;;;;;26.51;100.00;95205.44;5133265;27;20494;-55
2022/07/06 06:33:15;;;;;;;0.70;0.70;;;;;;;26.57;100.00;95201.22;5132501;27;20522;-56
2022/07/06 06:35:45;;;;;;;0.40;0.40;;;;;;;26.92;100.00;95201.56;5133065;27;20434;-56
2022/07/06 06:38:14;;;;;;;0.63;0.60;;;;;;;27.20;100.00;95198.31;5133152;27;20440;-56
2022/07/06 06:40:43;;;;;;;0.50;0.40;;;;;;;26.99;100.00;95155.41;5132783;27;20471;-56
2022/07/06 06:43:13;;;;;;;7.73;0.70;;;;;;;27.20;100.00;95182.00;5132413;27;20494;-55
2022/07/06 06:45:41;;;;;;;0.80;0.80;;;;;;;27.44;95.81;95192.28;5132875;27;20514;-56
2022/07/06 06:48:10;;;;;;;0.70;0.70;;;;;;;27.66;100.00;95189.31;5132642;27;20454;-56
2022/07/06 06:50:44;;;;;;;0.50;0.50;;;;;;;27.56;97.88;95189.25;5133024;27;20478;-55
2022/07/06 06:53:13;;;;;;;0.60;0.60;;;;;;;27.34;100.00;95106.66;5132737;27;20521;-56
2022/07/06 06:55:41;;;;;;;0.77;0.77;;;;;;;28.31;93.47;95175.56;5132847;27;20509;-56
2022/07/06 06:58:10;;;;;;;9.10;0.80;;;;;;;28.44;94.70;95173.25;5132719;27;20477;-56
2022/07/06 07:00:39;;;;;;;0.40;0.40;;;;;;;28.55;89.11;95162.38;5133089;27;20450;-56
2022/07/06 07:03:08;;;;;;;0.70;0.40;;;;;;;28.44;93.63;95167.81;5132933;27;20807;-57
2022/07/06 07:05:36;;;;;;;0.80;0.40;;;;;;;28.64;98.29;95155.41;5132594;27;20513;-57
2022/07/06 07:08:05;;;;;;;1.60;0.50;;;;;;;28.62;94.67;95160.47;5132454;27;20458;-58
2022/07/06 07:10:34;;;;;;;1.80;0.77;;;;;;;28.76;97.92;95149.59;5132335;27;20474;-58
2022/07/06 07:13:02;;;;;;;0.60;0.60;;;;;;;28.82;96.77;95142.56;5132885;27;20426;-59
2022/07/06 07:15:31;;;;;;;0.57;0.50;;;;;;;29.07;88.79;95137.09;5132347;28;20558;-59
2022/07/06 07:18:01;;;;;;;1.30;1.20;;;;;;;29.24;88.00;95149.19;5132823;28;20525;-60
2022/07/06 07:20:30;;;;;;;0.40;0.40;;;;;;;29.21;93.11;95133.59;5132783;28;20426;-60
2022/07/06 07:22:59;;;;;;;0.83;0.83;;;;;;;29.49;84.94;95147.19;5132402;28;20475;-61
2022/07/06 07:25:28;;;;;;;0.53;0.50;;;;;;;29.60;82.63;95145.19;5132475;28;20978;-61
2022/07/06 07:27:56;;;;;;;0.50;0.40;;;;;;;29.86;81.67;95139.31;5132230;28;20514;-60
2022/07/06 07:30:25;;;;;;;0.40;0.30;;;;;;;30.06;79.03;95136.84;5132644;28;20495;-60
2022/07/06 07:32:55;;;;;;;0.80;0.60;;;;;;;29.78;82.75;95137.00;5132162;28;20431;-59
2022/07/06 07:35:25;;;;;;;0.67;0.67;;;;;;;29.70;84.05;95135.44;5132161;28;20426;-59
2022/07/06 07:37:54;;;;;;;0.40;0.30;;;;;;;29.59;76.04;95067.19;5132121;28;20530;-59
2022/07/06 07:40:22;;;;;;;0.53;0.53;;;;;;;29.93;73.99;95128.34;5131861;28;20448;-58
2022/07/06 07:42:51;;;;;;;0.87;0.50;;;;;;;30.28;77.31;95124.66;5132286;28;20878;-58
2022/07/06 07:45:19;;;;;;;0.67;0.63;;;;;;;30.65;75.15;95121.31;5132348;28;20430;-58
2022/07/06 07:47:48;;;;;;;0.60;0.50;;;;;;;30.52;73.50;95098.34;5132248;28;20514;-58
2022/07/06 07:50:17;;;;;;;0.50;0.50;;;;;;;30.99;71.97;95114.03;5131417;28;20477;-58
2022/07/06 07:52:47;;;;;;;0.70;0.70;;;;;;;31.35;66.16;95108.97;5132453;27;20447;-58
2022/07/06 07:55:16;;;;;;;0.60;0.57;;;;;;;30.97;68.16;95110.16;5135354;27;20478;-58
2022/07/06 07:58:04;;;;;;;2.10;1.17;;;;;;;31.05;76.25;95111.59;5135725;27;20452;-58
2022/07/06 08:00:33;;;;;;;0.70;0.50;;;;;;;31.71;68.91;95103.91;5136427;27;20457;-58
2022/07/06 08:03:01;;;;;;;0.97;0.83;;;;;;;30.75;72.46;95099.34;5136449;27;20509;-58
2022/07/06 08:05:30;;;;;;;1.00;0.60;;;;;;;31.46;67.56;95103.41;5136243;27;20430;-57
2022/07/06 08:08:00;;;;;;;0.60;0.60;;;;;;;31.42;67.29;95092.47;5135915;27;20955;-57
2022/07/06 08:10:28;;;;;;;6.33;0.73;;;;;;;31.56;63.00;95105.25;5135852;27;20459;-57
2022/07/06 08:12:57;;;;;;;1.53;0.70;;;;;;;31.70;63.02;95103.13;5136112;27;20417;-57
2022/07/06 08:15:26;;;;;;;0.70;0.60;;;;;;;31.94;70.30;95104.78;5135955;27;20518;-57
2022/07/06 08:17:54;;;;;;;0.93;0.90;;;;;;;31.67;75.78;95097.69;5136165;27;20525;-57
2022/07/06 08:20:22;;;;;;;1.40;1.30;;;;;;;31.37;65.04;95090.94;5135797;27;20428;-56
2022/07/06 08:22:51;;;;;;;0.60;0.60;;;;;;;31.62;68.98;95084.44;5135845;27;20426;-58
2022/07/06 08:25:21;;;;;;;1.23;0.50;;;;;;;32.19;62.75;95088.03;5135668;27;20961;-57
2022/07/06 08:27:49;;;;;;;0.60;0.40;;;;;;;32.62;61.29;95086.25;5135631;27;20501;-58
2022/07/06 08:30:18;;;;;;;0.83;0.83;;;;;;;32.78;63.11;95088.34;5135342;27;20544;-56
2022/07/06 08:32:46;;;;;;;0.60;0.43;;;;;;;33.24;65.37;95082.84;5135434;27;20477;-56
2022/07/06 08:35:34;;;;;;;0.40;0.37;;;;;;;32.86;66.63;95073.31;5135715;27;20645;-57
2022/07/06 08:38:03;;;;;;;0.63;0.50;;;;;;;32.82;62.29;95083.56;5135129;27;20464;-57
2022/07/06 08:40:36;;;;;;;0.60;0.60;;;;;;;32.84;57.14;95085.91;5134969;27;20516;-57
2022/07/06 08:43:09;;;;;;;1.20;1.10;;;;;;;33.11;54.96;95081.16;5135572;27;20440;-55
2022/07/06 08:45:40;;;;;;;0.67;0.60;;;;;;;32.22;59.52;95084.47;5134914;27;20951;-55
2022/07/06 08:48:08;;;;;;;0.67;0.63;;;;;;;32.98;61.20;95091.16;5135066;27;20472;-55
2022/07/06 08:50:37;;;;;;;0.90;0.60;;;;;;;32.51;61.17;95080.13;5134987;27;20518;-55
2022/07/06 08:53:06;;;;;;;0.73;0.50;;;;;;;32.47;59.56;95079.38;5135080;27;20513;-55
2022/07/06 08:55:36;;;;;;;0.70;0.70;;;;;;;32.78;61.38;95071.88;5134456;27;21222;-55
2022/07/06 08:58:06;;;;;;;0.57;0.47;;;;;;;33.28;59.97;95071.78;5135050;27;20561;-55
2022/07/06 09:00:35;;;;;;;0.77;0.77;;;;;;;32.78;60.87;95069.13;5135109;27;20541;-54
2022/07/06 09:03:04;;;;;;;6.90;1.03;;;;;;;33.12;54.00;95066.19;5135198;27;20429;-54
2022/07/06 09:05:35;;;;;;;0.80;0.70;;;;;;;33.43;55.96;95067.59;5134290;27;20427;-54
2022/07/06 09:08:04;;;;;;;1.10;0.67;;;;;;;33.17;53.38;95068.47;5135048;27;20518;-54
2022/07/06 09:10:33;;;;;;;0.40;0.40;;;;;;;33.54;57.55;95081.91;5134450;27;20440;-54
2022/07/06 09:13:07;;;;;;;0.70;0.60;;;;;;;33.77;51.03;95070.88;5135048;27;20459;-54
2022/07/06 09:15:38;;;;;;;2.10;2.00;;;;;;;34.34;50.52;95075.16;5134495;27;20520;-54
2022/07/06 09:18:08;;;;;;;0.53;0.53;;;;;;;34.41;51.05;95069.47;5134463;27;20780;-54
2022/07/06 09:20:36;;;;;;;1.50;0.40;;;;;;;32.87;52.45;94972.47;5134957;27;20872;-54
2022/07/06 09:23:06;;;;;;;0.50;0.50;;;;;;;33.94;52.67;95065.41;5134463;27;20438;-54
2022/07/06 09:25:43;;;;;;;0.50;0.50;;;;;;;33.44;50.97;95057.38;5134416;27;20441;-54
2022/07/06 09:28:13;;;;;;;1.57;1.47;;;;;;;33.72;50.56;95063.13;5134438;27;20501;-54
2022/07/06 09:30:41;;;;;;;0.80;0.80;;;;;;;34.42;52.41;95058.06;5133833;27;20435;-54
2022/07/06 09:33:12;;;;;;;0.50;0.50;;;;;;;34.29;51.53;95056.41;5134240;27;20428;-54
2022/07/06 09:35:41;;;;;;;0.87;0.87;;;;;;;33.33;50.03;95062.28;5134175;27;20468;-54
2022/07/06 09:38:12;;;;;;;0.83;0.50;;;;;;;34.12;48.23;95058.34;5134653;27;20429;-56
2022/07/06 09:40:42;;;;;;;0.50;0.40;;;;;;;34.06;45.21;95060.06;5134019;27;20445;-56
2022/07/06 09:43:15;;;;;;;0.70;0.70;;;;;;;34.58;49.73;95056.53;5134095;27;20430;-56
2022/07/06 09:45:45;;;;;;;0.47;0.47;;;;;;;33.81;48.67;95055.06;5134347;27;20852;-56
2022/07/06 09:48:18;;;;;;;0.50;0.50;;;;;;;34.67;50.14;95048.44;5134001;27;20514;-56
2022/07/06 09:50:50;;;;;;;0.50;0.50;;;;;;;33.91;51.11;95042.28;5133956;27;20436;-56
2022/07/06 09:53:19;;;;;;;0.40;0.30;;;;;;;33.53;47.76;95044.63;5133866;27;20499;-56
2022/07/06 09:55:50;;;;;;;0.30;0.30;;;;;;;32.86;53.08;94993.69;5134179;27;20433;-56
2022/07/06 09:58:20;;;;;;;0.50;0.50;;;;;;;33.01;51.57;95027.94;5133758;27;20510;-56
2022/07/06 10:01:10;;;;;;;0.60;0.40;;;;;;;32.78;53.33;95051.88;5133472;27;20553;-56
2022/07/06 10:03:39;;;;;;;0.90;0.70;;;;;;;32.35;52.81;95047.06;5133711;27;20431;-56
2022/07/06 10:06:08;;;;;;;0.60;0.60;;;;;;;32.45;54.10;95042.59;5133798;27;20468;-56
2022/07/06 10:08:38;;;;;;;0.50;0.40;;;;;;;32.60;52.83;95038.44;5133928;27;20507;-56
2022/07/06 10:11:10;;;;;;;0.90;0.67;;;;;;;32.62;52.36;95033.31;5133604;27;20441;-56
2022/07/06 10:13:40;;;;;;;0.53;0.53;;;;;;;32.50;55.68;95040.16;5132461;27;20490;-56
2022/07/06 10:16:09;;;;;;;0.40;0.30;;;;;;;32.79;55.10;95039.72;5131897;27;20467;-56
2022/07/06 10:18:37;;;;;;;0.70;0.70;;;;;;;32.16;58.99;95031.25;5131325;27;20517;-57
2022/07/06 10:21:06;;;;;;;0.50;0.50;;;;;;;31.82;54.02;95034.06;5133541;27;20474;-56
2022/07/06 10:23:36;;;;;;;0.40;0.30;;;;;;;30.40;66.59;94946.44;5133388;27;20483;-57
2022/07/06 10:26:07;;;;;;;0.80;0.80;;;;;;;29.98;88.06;95029.53;5133459;27;20510;-56
2022/07/06 10:28:43;;;;;;;0.40;0.40;;;;;;;30.19;86.43;95018.47;5133203;27;20458;-56
2022/07/06 10:31:12;;;;;;;0.40;0.30;;;;;;;30.93;82.48;95013.59;5133218;27;20471;-56
2022/07/06 10:33:42;;;;;;;0.50;0.50;;;;;;;31.33;74.83;95029.19;5133469;27;20510;-56
2022/07/06 10:36:11;;;;;;;0.50;0.50;;;;;;;31.81;74.35;95012.53;5133065;27;20456;-56
2022/07/06 10:38:40;;;;;;;0.60;0.60;;;;;;;32.78;73.76;95016.19;5133172;27;20497;-56
2022/07/06 10:41:09;;;;;;;0.40;0.33;;;;;;;33.19;67.07;95008.41;5133230;27;20461;-56
2022/07/06 10:43:39;;;;;;;0.40;0.30;;;;;;;33.88;58.91;95008.16;5133157;27;20466;-56
2022/07/06 10:46:11;;;;;;;0.50;0.40;;;;;;;33.92;49.48;95007.31;5132932;27;20454;-56
2022/07/06 10:48:41;;;;;;;0.87;0.53;;;;;;;34.48;45.62;95009.53;5132886;27;20517;-56
2022/07/06 10:51:11;;;;;;;0.50;0.30;;;;;;;35.51;44.32;94996.63;5132925;27;20482;-56
2022/07/06 10:53:41;;;;;;;0.63;0.63;;;;;;;35.46;43.91;95005.44;5132818;27;20877;-56
2022/07/06 10:56:12;;;;;;;0.40;0.40;;;;;;;34.86;49.70;94982.28;5133213;27;20840;-56
2022/07/06 10:58:47;;;;;;;0.93;0.50;;;;;;;33.94;52.67;95008.44;5132725;27;20436;-56
2022/07/06 11:01:19;;;;;;;0.40;0.30;;;;;;;33.47;53.93;95005.06;5133122;27;20435;-56
2022/07/06 11:03:49;;;;;;;0.40;0.40;;;;;;;33.20;57.42;95004.44;5132734;27;21006;-56
2022/07/06 11:06:18;;;;;;;0.40;0.30;;;;;;;33.13;51.55;95004.59;5132479;27;20515;-56
2022/07/06 11:08:56;;;;;;;1.27;0.50;;;;;;;32.99;52.94;95000.09;5132983;27;20514;-56
2022/07/06 11:11:26;;;;;;;0.30;0.20;;;;;;;32.48;52.78;94998.63;5132660;27;20901;-56
2022/07/06 11:14:02;;;;;;;0.60;0.50;;;;;;;32.86;52.21;94995.66;5132367;27;20829;-56
2022/07/06 11:16:36;;;;;;;0.50;0.47;;;;;;;33.72;52.24;94988.13;5132592;28;20516;-56
2022/07/06 11:19:10;;;;;;;0.67;0.67;;;;;;;34.10;53.55;94989.25;5132982;28;20417;-56
2022/07/06 11:21:42;;;;;;;0.60;0.50;;;;;;;34.46;43.62;94989.16;5132579;28;20488;-56
2022/07/06 11:24:13;;;;;;;0.40;0.30;;;;;;;35.27;42.71;94975.31;5132930;28;20460;-55
2022/07/06 11:26:43;;;;;;;0.60;0.40;;;;;;;35.03;45.57;94981.03;5132268;28;20484;-56
2022/07/06 11:29:12;;;;;;;0.50;0.50;;;;;;;35.06;45.45;94971.94;5135484;27;20472;-55
2022/07/06 11:31:43;;;;;;;0.70;0.70;;;;;;;35.22;36.88;94965.56;5136697;27;20499;-55
2022/07/06 11:34:14;;;;;;;0.43;0.40;;;;;;;35.59;41.39;94964.16;5136411;27;20487;-55
2022/07/06 11:36:42;;;;;;;0.40;0.40;;;;;;;35.96;37.53;94957.09;5136599;27;20273;-55
2022/07/06 11:39:14;;;;;;;0.50;0.40;;;;;;;35.62;36.09;94943.97;5136519;27;20561;-55
2022/07/06 11:41:43;;;;;;;0.50;0.50;;;;;;;36.04;40.84;94956.47;5136591;27;20567;-55
2022/07/06 11:44:19;;;;;;;0.60;0.50;;;;;;;35.98;37.94;94949.16;5136569;27;20191;-55
2022/07/06 11:46:49;;;;;;;0.87;0.60;;;;;;;35.60;36.36;94960.16;5136940;27;20341;-55
2022/07/06 11:49:18;;;;;;;1.27;0.50;;;;;;;36.00;37.05;94961.31;5136405;27;20188;-55